Rejestracja

Wszystkie dane podawane są w czasie UTC za wyjątkiem miejsc gdzie jest jednoznacznie podane, że jest inaczej. Dane podawane w serwisie mają charakter informacyjny!!!
Informacje w sprawie dostępu do serwisu pod numerem tel. +48 261-828-138

Aktualna Pogoda
 
Pogoda w Polsce
12°C Szczecin 13°C Suwałki 13°C Warszawa 14°C Poznan
14°C Opole 14°C Kraków 12°C Rzeszów
Więcej miast w Polsce

Pogoda w Europie
13°C Berlin 11°C Paryz 9°C Bruksela 9°C Oslo
13°C Praga 15°C Zagrzeb
Więcej miast w Europie

Metary wojskowe test
METAR EPBC 260400Z 29003KT CAVOK 12/12 Q1012=
METAR EPCE 260430Z 05006KT 010V080 5000 BR OVC001 09/09 Q1015 RMK 092 100 8/8=
METAR EPDA 260430Z 05010KT 9999 OVC008 11/09 Q1015 RMK 112 089 8/8=
METAR EPDE 260430Z 30002KT 8000 SCT200 12/12 Q1012 MIFG RMK 124 097 3/3=
METAR EPIR 260430Z 04008KT 3000 BR BKN004 12/11 Q1014 RMK 120 091 7/7=
METAR EPKS 260430Z 24004KT 2500 BR SCT004 BKN010 14/13 Q1014 RMK 135 094 7/4=
METAR EPLK 260400Z 28008KT 2500 BR OVC004 13/13 Q1013 RMK 128 098 8/8=
METAR EPLY 260430Z 29006KT 1500 BR BKN003 13/13 Q1014 RMK 130 098 7/7=
METAR EPMB 260430Z 36006KT 6000 OVC002 11/10 Q1015 RMK 112 093 8/8=
METAR EPMI 260400Z 01002KT 8000 SCT060 11/10 Q1014 RMK 112 092 3/3=
METAR EPMM 260430Z 35004KT CAVOK 14/12 Q1012 RMK 143 083 2/2=
METAR EPOK 260430Z 01004KT 330V040 9999 OVC008 11/09 Q1015 RMK 110 090 8/8=
METAR EPPR 260400Z 01010KT 8000 OVC004 11/10 Q1015 RMK 113 090 8/8=
METAR EPPW 260430Z 27008KT 5000 BR SCT009 BKN011 BKN015 15/13 Q1014 RMK 149 087 7/3=
METAR EPSN 260430Z 03006KT 2000 BR BKN003 10/10 Q1014 RMK 101 097 7/7=
METAR EPTM 260400Z 23004KT 0800 FG OVC002 13/13 Q1013 RMK 132 096 8/8=


 
Informacje ogólne
Pogoda
Warszawa
Temperatura: 13.1°C
Wiatr: 3.0 m/s
Ciśnienie: 1012.6 hPa
Zjawiska: Brak
Temp. max: 13.1 °C
Temp. min: 12.1 °C


Dane astronomiczne
Warszawa:
Dzien: 16:14 h
Noc: 07:46 h


Using HW VSP powered by HW group.

Prawa autorskie©2007 SSH SZ RP. Wszelkie prawa zastrzeżone.